Time;durP1;ratioP1;P1;durP2;ratioP2;P2;SDS_P1;SDS_P2;PMS_P1;PMS_P2;Temp;Humidity;BMP_temperature;BMP_pressure;BME280_temperature;BME280_humidity;BME280_pressure;Samples;Min_cycle;Max_cycle;Signal;HPM_P1;HPM_P2
2022/02/22 00:01:32;;;;;;;2.97;0.88;;;17.90;62.60;;;;;;10418705;28;20037;-57
2022/02/22 00:06:33;;;;;;;2.85;0.82;;;17.90;62.80;;;;;;10418666;28;20486;-57
2022/02/22 00:11:34;;;;;;;3.83;1.10;;;17.90;62.60;;;;;;10418513;28;20454;-58
2022/02/22 00:16:34;;;;;;;3.90;1.00;;;18.00;62.30;;;;;;10417826;28;20116;-57
2022/02/22 00:21:35;;;;;;;3.17;0.65;;;18.00;62.50;;;;;;10418347;28;20454;-58
2022/02/22 00:26:36;;;;;;;2.10;0.70;;;18.00;62.20;;;;;;10418861;28;20025;-57
2022/02/22 00:31:37;;;;;;;5.15;0.77;;;18.00;62.10;;;;;;10417394;28;20535;-57
2022/02/22 00:36:37;;;;;;;5.93;1.10;;;18.00;62.20;;;;;;10424195;28;20053;-57
2022/02/22 00:41:38;;;;;;;3.40;0.85;;;17.90;62.50;;;;;;10417201;28;20030;-57
2022/02/22 00:46:39;;;;;;;1.10;0.40;;;17.90;62.70;;;;;;10416831;28;20030;-57
2022/02/22 00:51:40;;;;;;;2.95;0.80;;;17.90;62.70;;;;;;10417021;28;20018;-57
2022/02/22 00:56:40;;;;;;;1.52;0.63;;;17.80;63.30;;;;;;10433394;28;20538;-57
2022/02/22 01:01:41;;;;;;;1.92;0.90;;;17.90;62.60;;;;;;10432825;28;20535;-58
2022/02/22 01:06:42;;;;;;;1.88;0.93;;;17.90;62.70;;;;;;10417717;28;20097;-57
2022/02/22 01:11:44;;;;;;;2.90;1.02;;;17.90;62.60;;;;;;10419718;28;20026;-57
2022/02/22 01:16:44;;;;;;;4.68;0.90;;;17.90;62.50;;;;;;10417121;28;20109;-57
2022/02/22 01:21:45;;;;;;;1.80;0.73;;;17.90;62.60;;;;;;10415810;28;20116;-57
2022/02/22 01:26:46;;;;;;;2.60;0.85;;;17.90;62.40;;;;;;10415427;28;20108;-57
2022/02/22 01:31:47;;;;;;;2.22;0.95;;;18.00;62.10;;;;;;10415603;28;20079;-58
2022/02/22 01:36:47;;;;;;;1.55;0.68;;;18.00;62.10;;;;;;10422314;28;20490;-58
2022/02/22 01:41:48;;;;;;;1.63;0.70;;;17.90;62.30;;;;;;10415369;28;20565;-57
2022/02/22 01:46:58;;;;;;;1.60;0.75;;;17.90;62.30;;;;;;10415965;28;20067;-57
2022/02/22 01:52:00;;;;;;;1.38;0.70;;;17.90;62.30;;;;;;10415242;28;20035;-56
2022/02/22 01:57:02;;;;;;;2.95;0.68;;;17.90;62.40;;;;;;10430798;28;20037;-58
2022/02/22 02:02:03;;;;;;;1.67;0.70;;;17.90;62.20;;;;;;10400953;28;20083;-58
2022/02/22 02:07:04;;;;;;;1.52;0.70;;;17.90;62.40;;;;;;10403098;28;20029;-57
2022/02/22 02:12:06;;;;;;;2.00;1.05;;;17.90;62.30;;;;;;10414096;28;20502;-57
2022/02/22 02:17:06;;;;;;;4.53;0.90;;;17.90;62.30;;;;;;10430230;28;20486;-57
2022/02/22 02:22:07;;;;;;;3.10;0.88;;;17.90;62.40;;;;;;10413222;28;20045;-58
2022/02/22 02:27:08;;;;;;;2.25;0.70;;;17.90;62.10;;;;;;10413408;28;20028;-57
2022/02/22 02:32:09;;;;;;;1.42;0.50;;;18.10;61.70;;;;;;10414522;28;20044;-57
2022/02/22 02:37:09;;;;;;;2.85;0.70;;;18.20;61.50;;;;;;10412453;28;20083;-57
2022/02/22 02:42:10;;;;;;;2.08;0.75;;;18.10;61.60;;;;;;10429533;28;20032;-57
2022/02/22 02:47:11;;;;;;;1.10;0.70;;;18.00;61.70;;;;;;10428752;28;20029;-58
2022/02/22 02:52:12;;;;;;;1.73;0.68;;;18.00;61.90;;;;;;10412361;28;20037;-57
2022/02/22 02:57:14;;;;;;;1.65;0.60;;;17.90;62.00;;;;;;10429072;28;20488;-57
2022/02/22 03:02:15;;;;;;;1.40;0.52;;;17.90;62.00;;;;;;10400020;28;20064;-57
2022/02/22 03:07:16;;;;;;;1.77;0.45;;;17.90;62.00;;;;;;10415398;28;20026;-57
2022/02/22 03:12:17;;;;;;;4.00;0.88;;;17.90;61.90;;;;;;10428675;28;20048;-57
2022/02/22 03:17:17;;;;;;;2.58;0.60;;;17.90;62.10;;;;;;10428309;28;20132;-57
2022/02/22 03:22:19;;;;;;;1.55;0.50;;;17.90;61.90;;;;;;10412961;28;20418;-57
2022/02/22 03:27:20;;;;;;;2.22;0.60;;;17.90;62.00;;;;;;10412825;28;20053;-57
2022/02/22 03:32:20;;;;;;;2.05;0.68;;;17.90;61.80;;;;;;10413297;28;20476;-57
2022/02/22 03:37:21;;;;;;;2.08;0.70;;;17.90;61.90;;;;;;10417374;28;20145;-58
2022/02/22 03:42:22;;;;;;;1.65;0.50;;;17.90;61.90;;;;;;10411440;28;20034;-57
2022/02/22 03:47:22;;;;;;;1.92;0.55;;;17.90;61.80;;;;;;10386362;28;20386;-57
2022/02/22 03:52:24;;;;;;;2.45;0.65;;;17.90;61.90;;;;;;10411137;28;20142;-56
2022/02/22 03:57:25;;;;;;;2.20;0.68;;;17.90;61.70;;;;;;10412514;28;20030;-58
2022/02/22 04:02:26;;;;;;;3.22;0.82;;;17.90;61.90;;;;;;10397786;28;20089;-57
2022/02/22 04:07:27;;;;;;;2.67;0.80;;;17.90;61.60;;;;;;10410877;28;20528;-57
2022/02/22 04:12:28;;;;;;;1.88;0.70;;;17.90;61.60;;;;;;10410939;28;20068;-57
2022/02/22 04:17:29;;;;;;;1.52;0.80;;;18.00;61.30;;;;;;10421587;28;20347;-57
2022/02/22 04:22:29;;;;;;;1.63;0.70;;;18.00;61.30;;;;;;10418116;28;20029;-58
2022/02/22 04:27:30;;;;;;;1.52;0.50;;;18.00;61.20;;;;;;10418085;28;20112;-57
2022/02/22 04:32:31;;;;;;;1.90;0.55;;;18.00;61.30;;;;;;10437507;28;20025;-57
2022/02/22 04:37:32;;;;;;;2.95;0.82;;;18.00;61.40;;;;;;10422073;28;20645;-58
2022/02/22 04:42:33;;;;;;;3.28;0.63;;;18.00;61.20;;;;;;10418938;28;20367;-58
2022/02/22 04:47:34;;;;;;;1.50;0.80;;;18.00;61.40;;;;;;10400779;28;20049;-57
2022/02/22 04:52:35;;;;;;;2.67;0.70;;;18.00;61.20;;;;;;10416550;28;20033;-57
2022/02/22 04:57:37;;;;;;;2.45;0.90;;;18.00;61.30;;;;;;10417255;28;20068;-57
2022/02/22 05:02:38;;;;;;;4.18;0.93;;;18.00;61.30;;;;;;10406654;28;20030;-57
2022/02/22 05:07:39;;;;;;;2.47;0.75;;;18.00;61.20;;;;;;10417652;28;20529;-58
2022/02/22 05:12:39;;;;;;;2.47;0.73;;;18.00;61.30;;;;;;10417485;28;20104;-57
2022/02/22 05:17:40;;;;;;;2.83;0.88;;;18.00;61.20;;;;;;10416337;28;20044;-57
2022/02/22 05:22:43;;;;;;;2.75;0.68;;;18.00;61.40;;;;;;10416917;28;20462;-57
2022/02/22 05:27:44;;;;;;;2.03;0.50;;;18.00;61.10;;;;;;10415775;28;20026;-57
2022/02/22 05:32:46;;;;;;;2.65;0.47;;;18.00;61.30;;;;;;10431580;28;20022;-57
2022/02/22 05:37:46;;;;;;;2.80;0.60;;;18.00;61.00;;;;;;10415139;28;20044;-56
2022/02/22 05:42:47;;;;;;;2.33;0.60;;;18.00;61.30;;;;;;10412504;28;20055;-57
2022/02/22 05:47:48;;;;;;;4.78;1.23;;;18.00;61.10;;;;;;10404086;28;20608;-57
2022/02/22 05:52:48;;;;;;;1.05;0.52;;;18.00;61.10;;;;;;10399150;28;20478;-58
2022/02/22 05:57:50;;;;;;;1.77;0.40;;;18.00;61.20;;;;;;10413062;28;20021;-57
2022/02/22 06:02:50;;;;;;;2.65;0.80;;;17.90;61.30;;;;;;10412808;28;20044;-57
2022/02/22 06:07:51;;;;;;;3.63;1.05;;;18.00;61.10;;;;;;10413968;28;20387;-57
2022/02/22 06:12:52;;;;;;;4.45;0.90;;;18.10;61.30;;;;;;10414071;28;20112;-58
2022/02/22 06:17:52;;;;;;;7.00;1.00;;;18.20;61.80;;;;;;10408786;28;20545;-59
2022/02/22 06:22:53;;;;;;;2.55;0.70;;;18.00;62.20;;;;;;10414703;28;20022;-57
2022/02/22 06:27:54;;;;;;;4.63;1.00;;;18.10;62.90;;;;;;10411482;28;20026;-56
2022/02/22 06:32:55;;;;;;;4.07;1.00;;;18.10;63.10;;;;;;10408175;28;20038;-58
2022/02/22 06:37:57;;;;;;;7.85;1.00;;;18.10;63.10;;;;;;10417230;28;20029;-57
2022/02/22 06:42:58;;;;;;;6.57;1.15;;;18.10;63.00;;;;;;10415597;28;20037;-59
2022/02/22 06:47:59;;;;;;;14.18;1.40;;;18.10;62.70;;;;;;10413654;28;20108;-58
2022/02/22 06:52:59;;;;;;;11.63;1.77;;;18.10;63.00;;;;;;10413384;28;20039;-58
2022/02/22 06:58:08;;;;;;;12.02;2.50;;;18.10;63.00;;;;;;10412290;28;20112;-59
2022/02/22 07:03:10;;;;;;;12.55;2.33;;;17.90;62.70;;;;;;10399121;28;20029;-60
2022/02/22 07:08:10;;;;;;;11.40;1.85;;;17.80;62.60;;;;;;10413175;28;20034;-59
2022/02/22 07:13:11;;;;;;;10.90;1.92;;;17.80;62.90;;;;;;10411801;28;20458;-59
2022/02/22 07:18:13;;;;;;;12.57;2.47;;;17.90;62.40;;;;;;10410698;28;20561;-58
2022/02/22 07:23:14;;;;;;;8.55;1.83;;;17.80;62.60;;;;;;10412701;28;20520;-58
2022/02/22 07:28:15;;;;;;;11.13;1.95;;;17.80;62.10;;;;;;10409822;28;20108;-58
2022/02/22 07:33:15;;;;;;;8.68;1.80;;;17.90;62.10;;;;;;10410661;28;20555;-59
2022/02/22 07:38:16;;;;;;;12.43;2.30;;;17.80;62.10;;;;;;10416473;28;20485;-59
2022/02/22 07:43:17;;;;;;;8.02;2.40;;;17.80;62.20;;;;;;10409079;28;20071;-59
2022/02/22 07:48:17;;;;;;;7.70;1.90;;;17.70;62.40;;;;;;10412463;28;20171;-59
2022/02/22 07:53:18;;;;;;;6.22;1.80;;;17.70;62.40;;;;;;10425221;28;20037;-59
2022/02/22 07:58:19;;;;;;;8.00;2.47;;;17.60;62.40;;;;;;10425093;28;20541;-59
2022/02/22 08:03:19;;;;;;;6.50;1.75;;;17.70;62.30;;;;;;10419136;28;20135;-59
2022/02/22 08:08:20;;;;;;;9.95;1.73;;;17.50;62.40;;;;;;10434697;28;20064;-59
2022/02/22 08:13:21;;;;;;;7.45;1.88;;;17.60;62.20;;;;;;10422880;28;20394;-58
2022/02/22 08:18:21;;;;;;;9.18;1.20;;;17.60;62.50;;;;;;10419074;28;20025;-58
2022/02/22 08:23:22;;;;;;;5.20;1.58;;;17.70;62.00;;;;;;10417603;28;20133;-58
2022/02/22 08:28:23;;;;;;;7.32;2.38;;;17.80;61.50;;;;;;10417308;28;20068;-57
2022/02/22 08:33:24;;;;;;;9.95;2.53;;;17.70;61.50;;;;;;10416137;28;20150;-60
2022/02/22 08:38:24;;;;;;;6.80;1.80;;;17.70;61.70;;;;;;10433389;28;20045;-59
2022/02/22 08:43:25;;;;;;;7.80;1.83;;;17.80;61.30;;;;;;10418320;28;20478;-59
2022/02/22 08:48:26;;;;;;;5.82;1.70;;;17.90;61.10;;;;;;10417333;28;20025;-60
2022/02/22 08:53:26;;;;;;;8.75;1.67;;;17.80;61.10;;;;;;10418129;28;20112;-60
2022/02/22 08:58:27;;;;;;;4.20;1.65;;;17.70;61.30;;;;;;10399893;28;20116;-59
2022/02/22 09:03:28;;;;;;;11.88;2.17;;;17.70;61.40;;;;;;10414688;28;20042;-59
2022/02/22 09:08:29;;;;;;;7.53;1.92;;;17.70;61.40;;;;;;10417610;28;20030;-59
2022/02/22 09:13:30;;;;;;;8.63;2.22;;;17.70;61.40;;;;;;10428679;28;20045;-60
2022/02/22 09:18:30;;;;;;;8.30;2.38;;;17.70;61.30;;;;;;10417398;28;20021;-59
2022/02/22 09:23:31;;;;;;;4.15;1.30;;;17.60;61.50;;;;;;10415222;28;20040;-59
2022/02/22 09:28:32;;;;;;;6.78;2.00;;;17.60;61.50;;;;;;10415461;28;20163;-59
2022/02/22 09:33:32;;;;;;;6.30;1.67;;;17.70;61.20;;;;;;10426610;28;20068;-60
2022/02/22 09:38:33;;;;;;;6.35;1.98;;;17.70;61.10;;;;;;10403352;28;20029;-59
2022/02/22 09:43:34;;;;;;;5.75;1.65;;;17.70;61.00;;;;;;10411755;28;20453;-60
2022/02/22 09:48:37;;;;;;;4.55;1.40;;;17.70;61.00;;;;;;10406325;28;20389;-59
2022/02/22 09:53:40;;;;;;;3.85;1.35;;;17.70;61.20;;;;;;10414188;28;20390;-60
2022/02/22 09:58:41;;;;;;;5.40;1.58;;;17.70;60.90;;;;;;10410889;28;20037;-59
2022/02/22 10:03:42;;;;;;;8.32;1.80;;;17.80;60.70;;;;;;10426503;28;20029;-60
2022/02/22 10:08:55;;;;;;;4.93;1.10;;;17.70;60.70;;;;;;10430872;28;20037;-58
2022/02/22 10:14:02;;;;;;;5.47;1.38;;;17.60;60.70;;;;;;10391266;28;20037;-60
2022/02/22 10:19:03;;;;;;;4.68;1.48;;;17.80;60.80;;;;;;10408139;28;20481;-58
2022/02/22 10:24:12;;;;;;;7.97;1.63;;;17.80;60.60;;;;;;10414198;28;20040;-60
2022/02/22 10:29:19;;;;;;;4.47;1.60;;;17.80;60.60;;;;;;10413895;28;20032;-59
2022/02/22 10:34:33;;;;;;;6.88;1.70;;;17.90;61.00;;;;;;10418229;28;20383;-59
2022/02/22 10:39:34;;;;;;;3.65;1.30;;;17.80;60.90;;;;;;10410376;28;20052;-59
2022/02/22 10:44:36;;;;;;;4.22;1.30;;;17.70;61.40;;;;;;10412638;28;20065;-58
2022/02/22 10:49:37;;;;;;;7.47;1.40;;;17.60;61.40;;;;;;10412030;28;20032;-58
2022/02/22 10:54:41;;;;;;;7.18;1.50;;;17.60;61.60;;;;;;10413279;28;20025;-58
2022/02/22 10:59:44;;;;;;;4.00;1.30;;;17.60;62.00;;;;;;10428091;28;20056;-58
2022/02/22 11:04:45;;;;;;;6.13;1.92;;;17.60;62.00;;;;;;10410891;28;20030;-58
2022/02/22 11:09:47;;;;;;;3.45;1.23;;;17.70;61.90;;;;;;10406784;28;20041;-58
2022/02/22 11:14:48;;;;;;;5.25;1.40;;;17.70;61.90;;;;;;10408148;28;20059;-59
2022/02/22 11:19:52;;;;;;;5.65;1.63;;;17.70;62.00;;;;;;10413107;28;20421;-59
2022/02/22 11:24:59;;;;;;;4.78;1.40;;;17.60;62.20;;;;;;10410377;28;20030;-59
2022/02/22 11:30:10;;;;;;;5.90;1.23;;;17.50;62.40;;;;;;10436493;28;20044;-58
2022/02/22 11:35:17;;;;;;;4.53;1.42;;;17.50;61.90;;;;;;10430438;28;20102;-59
2022/02/22 11:40:32;;;;;;;4.65;1.40;;;17.70;61.50;;;;;;10408625;28;20087;-59
2022/02/22 11:45:33;;;;;;;8.82;2.33;;;17.60;61.50;;;;;;10417847;28;20152;-59
2022/02/22 11:50:40;;;;;;;5.82;2.28;;;17.60;61.20;;;;;;10419209;28;20465;-59
2022/02/22 11:55:41;;;;;;;6.00;1.60;;;17.80;60.80;;;;;;10417060;28;20030;-59
2022/02/22 12:00:42;;;;;;;3.78;1.75;;;17.80;60.50;;;;;;10417313;28;20029;-59
2022/02/22 12:05:57;;;;;;;6.57;1.65;;;17.90;60.30;;;;;;10433756;28;20490;-59
2022/02/22 12:11:01;;;;;;;3.97;1.25;;;17.90;60.20;;;;;;10418725;28;20026;-59
2022/02/22 12:16:19;;;;;;;6.22;1.67;;;17.90;60.20;;;;;;10418762;28;20109;-59
2022/02/22 12:21:23;;;;;;;4.22;1.77;;;17.80;60.40;;;;;;10418316;28;20091;-59
2022/02/22 12:26:25;;;;;;;5.50;1.88;;;17.70;60.70;;;;;;10415422;28;20037;-59
2022/02/22 12:31:36;;;;;;;4.95;1.63;;;17.80;60.50;;;;;;10417671;28;20374;-59
2022/02/22 12:36:40;;;;;;;6.07;1.40;;;17.80;60.60;;;;;;10417976;28;20076;-59
2022/02/22 12:41:45;;;;;;;4.70;1.67;;;17.70;60.50;;;;;;10417653;28;20040;-59
2022/02/22 12:46:48;;;;;;;5.57;1.85;;;17.80;60.30;;;;;;10407846;28;20594;-59
2022/02/22 12:51:58;;;;;;;4.43;1.60;;;17.80;60.60;;;;;;10433638;28;20049;-59
2022/02/22 12:57:02;;;;;;;4.97;1.70;;;17.80;60.40;;;;;;10417413;28;20029;-59
2022/02/22 13:02:06;;;;;;;3.67;1.48;;;17.80;60.40;;;;;;10416391;28;20044;-59
2022/02/22 13:07:15;;;;;;;4.07;1.50;;;17.80;60.20;;;;;;10416791;28;20090;-59
2022/02/22 13:12:25;;;;;;;4.68;2.00;;;17.80;60.30;;;;;;10428976;28;20030;-58
2022/02/22 13:17:30;;;;;;;7.43;1.95;;;17.80;60.20;;;;;;10410107;28;20087;-58
2022/02/22 13:22:39;;;;;;;3.42;1.60;;;17.80;60.70;;;;;;10415537;28;20167;-58
2022/02/22 13:27:44;;;;;;;7.53;1.55;;;17.80;60.80;;;;;;10415248;28;20140;-59
2022/02/22 13:32:44;;;;;;;5.15;1.52;;;18.00;60.70;;;;;;10423168;28;20086;-60
2022/02/22 13:37:45;;;;;;;4.35;1.50;;;17.90;60.70;;;;;;10421622;28;20099;-61
2022/02/22 13:43:05;;;;;;;10.02;1.70;;;17.80;61.30;;;;;;10414058;28;20132;-61
2022/02/22 13:48:10;;;;;;;7.95;2.17;;;17.80;61.50;;;;;;10415682;28;20029;-61
2022/02/22 13:53:16;;;;;;;6.82;1.58;;;17.80;61.60;;;;;;10414707;28;20037;-60
2022/02/22 13:58:22;;;;;;;7.00;1.65;;;17.80;61.60;;;;;;10430858;28;20550;-61
2022/02/22 14:03:25;;;;;;;4.47;1.85;;;18.00;61.20;;;;;;10419199;28;20033;-61
2022/02/22 14:08:26;;;;;;;6.38;1.58;;;17.90;61.70;;;;;;10413691;28;20041;-61
2022/02/22 14:13:28;;;;;;;6.80;2.03;;;18.00;61.40;;;;;;10413798;28;20033;-60
2022/02/22 14:18:29;;;;;;;3.78;1.30;;;17.90;61.50;;;;;;10415057;28;20038;-60
2022/02/22 14:23:30;;;;;;;5.32;1.40;;;17.80;61.60;;;;;;10414701;28;20480;-59
2022/02/22 14:28:31;;;;;;;6.80;1.80;;;17.60;61.80;;;;;;10414635;28;20474;-59
2022/02/22 14:33:34;;;;;;;6.30;1.83;;;17.70;61.70;;;;;;10423553;28;20124;-60
2022/02/22 14:38:35;;;;;;;4.93;1.40;;;17.80;61.40;;;;;;10413249;28;20075;-59
2022/02/22 14:43:37;;;;;;;9.35;1.60;;;17.80;61.30;;;;;;10412736;28;20554;-59
2022/02/22 14:48:38;;;;;;;5.32;1.77;;;17.70;61.40;;;;;;10412614;28;20124;-59
2022/02/22 14:53:41;;;;;;;8.30;1.60;;;17.80;61.20;;;;;;10411580;28;20056;-59
2022/02/22 14:58:42;;;;;;;2.80;1.17;;;17.70;61.20;;;;;;10411642;28;20030;-59
2022/02/22 15:03:45;;;;;;;4.20;1.30;;;17.70;61.30;;;;;;10409931;28;20079;-59
2022/02/22 15:08:45;;;;;;;5.13;1.20;;;17.70;61.20;;;;;;10411965;28;20060;-60
2022/02/22 15:13:46;;;;;;;4.97;1.98;;;17.90;60.70;;;;;;10412232;28;20507;-60
2022/02/22 15:18:47;;;;;;;4.30;2.25;;;17.90;60.60;;;;;;10411712;28;20429;-60
2022/02/22 15:23:47;;;;;;;5.15;1.88;;;18.00;60.50;;;;;;10411803;28;20025;-60
2022/02/22 15:28:48;;;;;;;5.22;1.40;;;17.90;60.30;;;;;;10394671;28;20033;-58
2022/02/22 15:33:49;;;;;;;5.10;1.50;;;17.80;60.70;;;;;;10416588;28;20044;-60
2022/02/22 15:38:50;;;;;;;8.73;2.17;;;18.00;60.90;;;;;;10410737;28;20036;-59
2022/02/22 15:43:51;;;;;;;7.30;1.80;;;17.90;60.90;;;;;;10411841;28;20024;-59
2022/02/22 15:48:51;;;;;;;3.80;1.40;;;17.90;61.20;;;;;;10411630;28;20113;-58
2022/02/22 15:53:52;;;;;;;6.57;2.13;;;17.90;61.10;;;;;;10411024;28;20076;-58
2022/02/22 15:58:53;;;;;;;6.20;1.98;;;18.10;61.60;;;;;;10411042;28;20045;-58
2022/02/22 16:03:57;;;;;;;4.80;1.88;;;18.20;62.90;;;;;;10393477;28;20393;-59
2022/02/22 16:08:57;;;;;;;4.30;2.45;;;18.50;63.50;;;;;;10413414;28;20032;-58
2022/02/22 16:13:58;;;;;;;11.48;7.20;;;18.80;61.20;;;;;;10416121;28;20484;-59
2022/02/22 16:18:59;;;;;;;20.08;9.02;;;18.60;64.30;;;;;;10418100;28;20037;-59
2022/02/22 16:24:00;;;;;;;10.52;4.57;;;18.40;65.50;;;;;;10419925;28;20100;-59
2022/02/22 16:29:01;;;;;;;10.23;5.18;;;18.40;64.20;;;;;;10434520;28;20087;-58
2022/02/22 16:34:02;;;;;;;11.68;5.03;;;18.00;64.70;;;;;;10422070;28;20053;-58
2022/02/22 16:39:02;;;;;;;8.57;5.43;;;17.80;65.30;;;;;;10408993;28;20756;-59
2022/02/22 16:44:04;;;;;;;10.73;4.82;;;17.60;66.50;;;;;;10413957;28;20030;-58
2022/02/22 16:49:05;;;;;;;7.65;4.35;;;17.60;66.10;;;;;;10415706;28;20074;-58
2022/02/22 16:54:06;;;;;;;12.63;4.07;;;17.60;65.00;;;;;;10399678;28;20507;-59
2022/02/22 16:59:07;;;;;;;8.60;4.35;;;17.70;63.90;;;;;;10433383;28;20470;-57
2022/02/22 17:04:08;;;;;;;9.25;3.55;;;17.60;64.20;;;;;;10417654;28;20116;-57
2022/02/22 17:09:09;;;;;;;18.45;4.07;;;17.80;62.90;;;;;;10416676;28;20109;-57
2022/02/22 17:14:10;;;;;;;17.40;4.50;;;17.90;63.90;;;;;;10417149;28;20065;-57
2022/02/22 17:19:10;;;;;;;12.90;3.95;;;18.30;64.20;;;;;;10432303;28;20437;-56
2022/02/22 17:24:11;;;;;;;18.13;4.18;;;18.30;64.30;;;;;;10415585;28;20056;-57
2022/02/22 17:29:14;;;;;;;11.15;3.95;;;18.10;65.10;;;;;;10415445;28;20413;-58
2022/02/22 17:34:15;;;;;;;15.52;4.03;;;18.00;64.70;;;;;;10428653;28;20049;-59
2022/02/22 17:39:16;;;;;;;12.73;3.65;;;18.00;64.60;;;;;;10418686;28;20034;-56
2022/02/22 17:44:16;;;;;;;22.50;4.35;;;17.90;65.20;;;;;;10414441;28;20516;-57
2022/02/22 17:49:17;;;;;;;14.25;4.68;;;17.80;64.60;;;;;;10398411;28;20029;-57
2022/02/22 17:54:18;;;;;;;16.25;4.57;;;17.90;64.50;;;;;;10411951;28;20025;-58
2022/02/22 17:59:19;;;;;;;21.00;5.30;;;17.80;64.30;;;;;;10412727;28;20488;-57
2022/02/22 18:04:21;;;;;;;13.48;3.90;;;17.80;64.20;;;;;;10407549;28;20033;-56
2022/02/22 18:09:25;;;;;;;14.02;4.18;;;17.70;64.00;;;;;;10393878;28;20032;-57
2022/02/22 18:14:26;;;;;;;14.20;4.25;;;17.80;63.80;;;;;;10413115;28;20348;-56
2022/02/22 18:19:27;;;;;;;14.63;4.20;;;17.80;63.60;;;;;;10412715;28;20481;-56
2022/02/22 18:24:27;;;;;;;18.85;4.43;;;17.90;63.40;;;;;;10414455;28;20458;-57
2022/02/22 18:29:28;;;;;;;9.50;3.42;;;17.90;63.40;;;;;;10418440;28;20014;-57
2022/02/22 18:34:29;;;;;;;14.77;3.95;;;17.90;63.70;;;;;;10410931;28;20045;-57
2022/02/22 18:39:30;;;;;;;12.15;3.63;;;17.80;63.30;;;;;;10412079;28;20032;-57
2022/02/22 18:44:31;;;;;;;14.70;3.55;;;17.80;63.20;;;;;;10411532;28;20026;-57
2022/02/22 18:49:31;;;;;;;13.30;3.55;;;17.70;63.00;;;;;;10411034;28;20080;-57
2022/02/22 18:54:32;;;;;;;9.27;3.70;;;17.80;62.80;;;;;;10407555;28;20025;-57
2022/02/22 18:59:34;;;;;;;11.13;3.22;;;17.80;62.70;;;;;;10422543;28;20037;-57
2022/02/22 19:04:35;;;;;;;10.48;3.35;;;17.80;62.70;;;;;;10407833;28;20108;-57
2022/02/22 19:09:36;;;;;;;11.75;3.03;;;17.90;62.50;;;;;;10390971;28;20148;-57
2022/02/22 19:14:37;;;;;;;7.93;2.53;;;17.90;62.30;;;;;;10393521;28;20030;-58
2022/02/22 19:19:39;;;;;;;11.27;3.25;;;17.90;62.20;;;;;;10410979;28;20029;-58
2022/02/22 19:24:40;;;;;;;16.50;2.95;;;17.80;62.40;;;;;;10407289;28;20044;-57
2022/02/22 19:29:41;;;;;;;10.50;3.20;;;17.80;62.70;;;;;;10411402;28;20057;-57
2022/02/22 19:34:45;;;;;;;7.28;2.83;;;17.80;62.60;;;;;;10412437;28;20049;-58
2022/02/22 19:39:46;;;;;;;12.77;3.47;;;17.90;62.70;;;;;;10418538;28;20121;-58
2022/02/22 19:44:47;;;;;;;5.30;2.45;;;17.90;62.50;;;;;;10409139;28;20436;-58
2022/02/22 19:49:48;;;;;;;10.75;3.28;;;17.80;62.60;;;;;;10397493;28;20096;-58
2022/02/22 19:54:49;;;;;;;6.50;2.95;;;17.70;62.80;;;;;;10410567;28;20021;-58
2022/02/22 19:59:49;;;;;;;9.15;3.70;;;17.60;62.90;;;;;;10420668;28;20048;-58
2022/02/22 20:04:53;;;;;;;10.88;3.75;;;17.60;63.20;;;;;;10407677;28;20025;-58
2022/02/22 20:09:54;;;;;;;7.45;2.75;;;17.50;63.30;;;;;;10405487;28;20034;-58
2022/02/22 20:14:54;;;;;;;9.18;3.25;;;17.60;63.30;;;;;;10414857;28;20478;-58
2022/02/22 20:19:55;;;;;;;9.20;2.95;;;17.60;63.50;;;;;;10401167;28;20712;-57
2022/02/22 20:24:57;;;;;;;6.70;2.17;;;17.70;63.00;;;;;;10416214;28;20034;-57
2022/02/22 20:29:57;;;;;;;11.60;3.13;;;17.70;63.00;;;;;;10432843;28;20029;-57
2022/02/22 20:35:00;;;;;;;6.13;2.97;;;17.70;62.70;;;;;;10416961;28;20037;-57
2022/02/22 20:40:01;;;;;;;7.95;2.45;;;17.70;62.70;;;;;;10416082;28;20037;-57
2022/02/22 20:45:03;;;;;;;8.43;2.55;;;17.80;62.30;;;;;;10407136;28;20116;-58
2022/02/22 20:50:05;;;;;;;7.65;1.95;;;17.80;62.30;;;;;;10419332;28;20032;-57
2022/02/22 20:55:07;;;;;;;9.27;2.72;;;17.80;62.20;;;;;;10415707;28;20073;-57
2022/02/22 21:00:09;;;;;;;7.55;2.97;;;17.80;62.10;;;;;;10414313;28;20420;-57
2022/02/22 21:05:10;;;;;;;7.53;3.08;;;17.80;62.20;;;;;;10433004;28;20049;-57
2022/02/22 21:10:13;;;;;;;7.82;3.25;;;17.80;61.90;;;;;;10392370;28;20120;-57
2022/02/22 21:15:14;;;;;;;5.53;2.50;;;17.80;61.90;;;;;;10411533;28;20053;-58
2022/02/22 21:20:16;;;;;;;6.80;2.95;;;17.80;62.30;;;;;;10416058;28;20108;-57
2022/02/22 21:25:17;;;;;;;6.35;2.35;;;17.80;61.70;;;;;;10432474;28;20072;-57
2022/02/22 21:30:18;;;;;;;5.95;2.47;;;17.70;61.70;;;;;;10432168;28;20041;-58
2022/02/22 21:35:19;;;;;;;6.15;1.80;;;17.80;61.60;;;;;;10443267;28;20049;-57
2022/02/22 21:40:20;;;;;;;7.30;2.33;;;17.80;61.50;;;;;;10432135;28;20485;-57
2022/02/22 21:45:21;;;;;;;7.35;2.20;;;17.80;61.30;;;;;;10416364;28;20049;-57
2022/02/22 21:50:22;;;;;;;3.78;1.70;;;17.70;61.40;;;;;;10416344;28;20104;-57
2022/02/22 21:55:23;;;;;;;6.38;1.88;;;17.80;61.20;;;;;;10423637;28;20489;-57
2022/02/22 22:00:23;;;;;;;5.70;1.90;;;17.80;61.10;;;;;;10414662;28;20113;-57
2022/02/22 22:05:24;;;;;;;6.03;2.10;;;17.80;61.00;;;;;;10424513;28;20032;-57
2022/02/22 22:10:26;;;;;;;7.78;2.00;;;17.70;61.00;;;;;;10403681;28;20022;-57
2022/02/22 22:15:27;;;;;;;8.10;2.10;;;17.70;60.90;;;;;;10409759;28;20618;-57
2022/02/22 22:20:30;;;;;;;5.72;2.15;;;17.80;60.90;;;;;;10411707;28;20071;-57
2022/02/22 22:25:31;;;;;;;4.57;2.00;;;17.70;60.60;;;;;;10413255;28;20025;-57
2022/02/22 22:30:32;;;;;;;7.07;2.03;;;17.80;60.60;;;;;;10414450;28;20040;-57
2022/02/22 22:35:33;;;;;;;5.57;2.08;;;17.80;60.70;;;;;;10424890;28;20072;-56
2022/02/22 22:40:34;;;;;;;5.75;2.28;;;17.70;60.70;;;;;;10403942;28;20033;-57
2022/02/22 22:45:35;;;;;;;6.65;1.70;;;17.80;60.70;;;;;;10414180;28;20041;-56
2022/02/22 22:50:35;;;;;;;6.45;2.22;;;17.70;60.60;;;;;;10407481;28;20109;-58
2022/02/22 22:55:36;;;;;;;4.40;1.77;;;17.80;60.60;;;;;;10413765;28;20036;-56
2022/02/22 23:01:16;;;;;;;3.58;1.33;;;17.70;60.60;;;;;;10412691;28;20026;-57
2022/02/22 23:17:11;;;;;;;3.75;1.80;;;17.80;60.10;;;;;;10401268;28;20069;-56
2022/02/22 23:22:12;;;;;;;5.90;1.92;;;17.90;60.10;;;;;;10395337;28;20033;-58
2022/02/22 23:27:13;;;;;;;5.00;1.50;;;17.90;59.90;;;;;;10411703;28;20113;-57
2022/02/22 23:32:13;;;;;;;7.03;2.03;;;17.90;59.90;;;;;;10399154;28;20030;-57
2022/02/22 23:37:14;;;;;;;3.58;1.52;;;17.90;59.50;;;;;;10423541;28;20130;-57
2022/02/22 23:42:15;;;;;;;3.30;1.38;;;17.90;59.60;;;;;;10413088;28;20036;-57
2022/02/22 23:47:15;;;;;;;3.58;1.13;;;18.00;59.40;;;;;;10411593;28;20037;-57
2022/02/22 23:52:16;;;;;;;4.55;1.23;;;18.00;59.40;;;;;;10412694;28;20444;-57
2022/02/22 23:57:17;;;;;;;5.95;1.90;;;18.00;59.40;;;;;;10427988;28;20105;-57
